Atlanta, Georgia
Traffic Map
Current Weather Conditions
Atlanta, Georgia
Broken Clouds
Broken Clouds
23°
Feels Like: 23°
Wind Chill: 23° Ceiling: 10000
Heat Index: 23° Visibility: 10mi
Dew Point: 21° Wind: 5mph
Humidity: 87% Direction: 50° (NE)
Pressure: 30.16in Gusts: 0mph
Raw Report DataKATL 310552Z 05004KT 10SM FEW006 SCT075 BKN100 BKN250 23/21 A3016 RMK AO2 SLP202 60048 T02330211 10267 20233 53003
Traffic Incident Summary
Active as of:
Severity:
Category:
InformationThere was an issue retrieving the traffic information for this location. Please try a different location or try again shortly.
Advertisements
Track Severe Weather on mobile